sensor_id;sensor_type;location;lat;lon;timestamp;temperature;humidity
45765;DHT22;31474;45.332;10.230;2022-12-08T00:01:42;3.40;99.90
45765;DHT22;31474;45.332;10.230;2022-12-08T00:04:08;3.30;99.90
45765;DHT22;31474;45.332;10.230;2022-12-08T00:06:38;3.30;99.90
45765;DHT22;31474;45.332;10.230;2022-12-08T00:09:32;3.20;99.90
45765;DHT22;31474;45.332;10.230;2022-12-08T00:14:31;3.20;99.90
45765;DHT22;31474;45.332;10.230;2022-12-08T00:16:58;3.20;99.90
45765;DHT22;31474;45.332;10.230;2022-12-08T00:19:25;3.20;99.90
45765;DHT22;31474;45.332;10.230;2022-12-08T00:21:52;3.20;99.90
45765;DHT22;31474;45.332;10.230;2022-12-08T00:24:19;3.20;99.90
45765;DHT22;31474;45.332;10.230;2022-12-08T00:26:45;3.20;99.90
45765;DHT22;31474;45.332;10.230;2022-12-08T00:29:11;3.20;99.90
45765;DHT22;31474;45.332;10.230;2022-12-08T00:31:37;3.20;99.90
45765;DHT22;31474;45.332;10.230;2022-12-08T00:34:03;3.10;99.90
45765;DHT22;31474;45.332;10.230;2022-12-08T00:36:29;3.10;99.90
45765;DHT22;31474;45.332;10.230;2022-12-08T00:38:55;3.10;99.90
45765;DHT22;31474;45.332;10.230;2022-12-08T00:41:23;3.10;99.90
45765;DHT22;31474;45.332;10.230;2022-12-08T00:44:08;3.10;99.90
45765;DHT22;31474;45.332;10.230;2022-12-08T00:46:34;3.10;99.90
45765;DHT22;31474;45.332;10.230;2022-12-08T00:49:00;3.20;99.90
45765;DHT22;31474;45.332;10.230;2022-12-08T00:51:26;3.20;99.90
45765;DHT22;31474;45.332;10.230;2022-12-08T00:53:51;3.20;99.90
45765;DHT22;31474;45.332;10.230;2022-12-08T00:56:17;3.20;99.90
45765;DHT22;31474;45.332;10.230;2022-12-08T00:58:43;3.10;99.90
45765;DHT22;31474;45.332;10.230;2022-12-08T01:01:10;3.00;99.90
45765;DHT22;31474;45.332;10.230;2022-12-08T01:03:36;2.90;99.90
45765;DHT22;31474;45.332;10.230;2022-12-08T01:06:03;2.90;99.90
45765;DHT22;31474;45.332;10.230;2022-12-08T01:08:28;2.90;99.90
45765;DHT22;31474;45.332;10.230;2022-12-08T01:10:54;2.90;99.90
45765;DHT22;31474;45.332;10.230;2022-12-08T01:13:20;3.00;99.90
45765;DHT22;31474;45.332;10.230;2022-12-08T01:15:45;2.90;99.90
45765;DHT22;31474;45.332;10.230;2022-12-08T01:18:11;2.90;99.90
45765;DHT22;31474;45.332;10.230;2022-12-08T01:20:37;2.90;99.90
45765;DHT22;31474;45.332;10.230;2022-12-08T01:23:02;2.90;99.90
45765;DHT22;31474;45.332;10.230;2022-12-08T01:25:28;2.90;99.90
45765;DHT22;31474;45.332;10.230;2022-12-08T01:27:54;3.00;99.90
45765;DHT22;31474;45.332;10.230;2022-12-08T01:30:20;3.00;99.90
45765;DHT22;31474;45.332;10.230;2022-12-08T01:32:45;3.00;99.90
45765;DHT22;31474;45.332;10.230;2022-12-08T01:35:12;3.00;99.90
45765;DHT22;31474;45.332;10.230;2022-12-08T01:37:38;3.00;99.90
45765;DHT22;31474;45.332;10.230;2022-12-08T01:40:04;3.10;99.90
45765;DHT22;31474;45.332;10.230;2022-12-08T01:42:30;3.10;99.90
45765;DHT22;31474;45.332;10.230;2022-12-08T01:45:04;3.10;99.90
45765;DHT22;31474;45.332;10.230;2022-12-08T01:47:40;3.10;99.90
45765;DHT22;31474;45.332;10.230;2022-12-08T01:50:09;3.10;99.90
45765;DHT22;31474;45.332;10.230;2022-12-08T01:52:39;3.00;99.90
45765;DHT22;31474;45.332;10.230;2022-12-08T01:55:33;3.00;99.90
45765;DHT22;31474;45.332;10.230;2022-12-08T01:58:16;2.90;99.90
45765;DHT22;31474;45.332;10.230;2022-12-08T02:00:42;2.80;99.90
45765;DHT22;31474;45.332;10.230;2022-12-08T02:03:21;2.80;99.90
45765;DHT22;31474;45.332;10.230;2022-12-08T02:05:48;2.90;99.90
45765;DHT22;31474;45.332;10.230;2022-12-08T02:08:14;2.80;99.90
45765;DHT22;31474;45.332;10.230;2022-12-08T02:10:41;2.90;99.90
45765;DHT22;31474;45.332;10.230;2022-12-08T02:13:12;2.90;99.90
45765;DHT22;31474;45.332;10.230;2022-12-08T02:18:45;3.00;99.90
45765;DHT22;31474;45.332;10.230;2022-12-08T02:34:46;2.90;99.90
45765;DHT22;31474;45.332;10.230;2022-12-08T02:37:34;2.80;99.90
45765;DHT22;31474;45.332;10.230;2022-12-08T02:43:00;2.80;99.90
45765;DHT22;31474;45.332;10.230;2022-12-08T02:45:32;2.80;99.90
45765;DHT22;31474;45.332;10.230;2022-12-08T02:48:00;2.80;99.90
45765;DHT22;31474;45.332;10.230;2022-12-08T02:50:27;2.90;99.90
45765;DHT22;31474;45.332;10.230;2022-12-08T02:52:52;2.90;99.90
45765;DHT22;31474;45.332;10.230;2022-12-08T03:04:21;2.80;99.90
45765;DHT22;31474;45.332;10.230;2022-12-08T03:09:38;2.80;99.90
45765;DHT22;31474;45.332;10.230;2022-12-08T03:12:17;2.80;99.90
45765;DHT22;31474;45.332;10.230;2022-12-08T03:14:48;2.80;99.90
45765;DHT22;31474;45.332;10.230;2022-12-08T03:17:16;2.80;99.90
45765;DHT22;31474;45.332;10.230;2022-12-08T03:19:45;2.80;99.90
45765;DHT22;31474;45.332;10.230;2022-12-08T03:22:14;2.80;99.90
45765;DHT22;31474;45.332;10.230;2022-12-08T03:24:44;2.80;99.90
45765;DHT22;31474;45.332;10.230;2022-12-08T03:27:15;2.80;99.90
45765;DHT22;31474;45.332;10.230;2022-12-08T03:29:45;2.80;99.90
45765;DHT22;31474;45.332;10.230;2022-12-08T03:32:21;2.80;99.90
45765;DHT22;31474;45.332;10.230;2022-12-08T03:34:48;2.90;99.90
45765;DHT22;31474;45.332;10.230;2022-12-08T03:37:15;2.90;99.90
45765;DHT22;31474;45.332;10.230;2022-12-08T03:39:41;2.90;99.90
45765;DHT22;31474;45.332;10.230;2022-12-08T03:42:06;2.90;99.90
45765;DHT22;31474;45.332;10.230;2022-12-08T03:44:32;2.90;99.90
45765;DHT22;31474;45.332;10.230;2022-12-08T03:46:58;2.90;99.90
45765;DHT22;31474;45.332;10.230;2022-12-08T03:49:23;2.90;99.90
45765;DHT22;31474;45.332;10.230;2022-12-08T03:51:49;2.90;99.90
45765;DHT22;31474;45.332;10.230;2022-12-08T03:54:15;2.90;99.90
45765;DHT22;31474;45.332;10.230;2022-12-08T03:56:40;2.90;99.90
45765;DHT22;31474;45.332;10.230;2022-12-08T03:59:06;2.90;99.90
45765;DHT22;31474;45.332;10.230;2022-12-08T04:01:33;2.90;99.90
45765;DHT22;31474;45.332;10.230;2022-12-08T04:03:58;2.90;99.90
45765;DHT22;31474;45.332;10.230;2022-12-08T04:06:24;3.00;99.90
45765;DHT22;31474;45.332;10.230;2022-12-08T04:08:51;3.00;99.90
45765;DHT22;31474;45.332;10.230;2022-12-08T04:11:17;3.00;99.90
45765;DHT22;31474;45.332;10.230;2022-12-08T04:13:43;3.00;99.90
45765;DHT22;31474;45.332;10.230;2022-12-08T04:16:21;3.00;99.90
45765;DHT22;31474;45.332;10.230;2022-12-08T04:18:47;3.10;99.90
45765;DHT22;31474;45.332;10.230;2022-12-08T04:21:14;3.10;99.90
45765;DHT22;31474;45.332;10.230;2022-12-08T04:23:40;3.10;99.90
45765;DHT22;31474;45.332;10.230;2022-12-08T04:26:06;3.10;99.90
45765;DHT22;31474;45.332;10.230;2022-12-08T04:28:32;3.10;99.90
45765;DHT22;31474;45.332;10.230;2022-12-08T04:30:58;3.00;99.90
45765;DHT22;31474;45.332;10.230;2022-12-08T04:33:24;3.00;99.90
45765;DHT22;31474;45.332;10.230;2022-12-08T04:35:50;2.90;99.90
45765;DHT22;31474;45.332;10.230;2022-12-08T04:38:16;2.90;99.90
45765;DHT22;31474;45.332;10.230;2022-12-08T04:40:41;2.90;99.90
45765;DHT22;31474;45.332;10.230;2022-12-08T04:43:07;2.90;99.90
45765;DHT22;31474;45.332;10.230;2022-12-08T04:45:33;2.90;99.90
45765;DHT22;31474;45.332;10.230;2022-12-08T04:48:00;3.00;99.90
45765;DHT22;31474;45.332;10.230;2022-12-08T04:50:26;3.00;99.90
45765;DHT22;31474;45.332;10.230;2022-12-08T04:52:52;3.00;99.90
45765;DHT22;31474;45.332;10.230;2022-12-08T04:55:18;3.10;99.90
45765;DHT22;31474;45.332;10.230;2022-12-08T04:57:44;3.10;99.90
45765;DHT22;31474;45.332;10.230;2022-12-08T05:00:12;3.00;99.90
45765;DHT22;31474;45.332;10.230;2022-12-08T05:02:38;3.00;99.90
45765;DHT22;31474;45.332;10.230;2022-12-08T05:05:04;3.00;99.90
45765;DHT22;31474;45.332;10.230;2022-12-08T05:07:30;3.00;99.90
45765;DHT22;31474;45.332;10.230;2022-12-08T05:09:56;2.90;99.90
45765;DHT22;31474;45.332;10.230;2022-12-08T05:12:22;2.90;99.90
45765;DHT22;31474;45.332;10.230;2022-12-08T05:14:47;3.00;99.90
45765;DHT22;31474;45.332;10.230;2022-12-08T05:17:14;2.90;99.90
45765;DHT22;31474;45.332;10.230;2022-12-08T05:19:40;2.90;99.90
45765;DHT22;31474;45.332;10.230;2022-12-08T05:22:06;2.90;99.90
45765;DHT22;31474;45.332;10.230;2022-12-08T05:24:31;2.90;99.90
45765;DHT22;31474;45.332;10.230;2022-12-08T05:26:57;3.00;99.90
45765;DHT22;31474;45.332;10.230;2022-12-08T05:29:23;3.00;99.90
45765;DHT22;31474;45.332;10.230;2022-12-08T05:31:48;3.00;99.90
45765;DHT22;31474;45.332;10.230;2022-12-08T05:34:14;3.00;99.90
45765;DHT22;31474;45.332;10.230;2022-12-08T05:36:40;3.00;99.90
45765;DHT22;31474;45.332;10.230;2022-12-08T05:39:05;3.10;99.90
45765;DHT22;31474;45.332;10.230;2022-12-08T05:41:31;3.00;99.90
45765;DHT22;31474;45.332;10.230;2022-12-08T05:43:56;3.00;99.90
45765;DHT22;31474;45.332;10.230;2022-12-08T05:46:26;3.00;99.90
45765;DHT22;31474;45.332;10.230;2022-12-08T05:48:52;3.00;99.90
45765;DHT22;31474;45.332;10.230;2022-12-08T05:51:23;3.10;99.90
45765;DHT22;31474;45.332;10.230;2022-12-08T05:53:49;3.20;99.90
45765;DHT22;31474;45.332;10.230;2022-12-08T05:56:16;3.20;99.90
45765;DHT22;31474;45.332;10.230;2022-12-08T05:58:42;3.10;99.90
45765;DHT22;31474;45.332;10.230;2022-12-08T06:01:18;3.20;99.90
45765;DHT22;31474;45.332;10.230;2022-12-08T06:03:44;3.20;99.90
45765;DHT22;31474;45.332;10.230;2022-12-08T06:06:09;3.30;99.90
45765;DHT22;31474;45.332;10.230;2022-12-08T06:08:35;3.20;99.90
45765;DHT22;31474;45.332;10.230;2022-12-08T06:11:01;3.10;99.90
45765;DHT22;31474;45.332;10.230;2022-12-08T06:13:26;3.20;99.90
45765;DHT22;31474;45.332;10.230;2022-12-08T06:15:52;3.20;99.90
45765;DHT22;31474;45.332;10.230;2022-12-08T06:18:17;3.10;99.90
45765;DHT22;31474;45.332;10.230;2022-12-08T06:20:43;3.10;99.90
45765;DHT22;31474;45.332;10.230;2022-12-08T06:23:09;3.10;99.90
45765;DHT22;31474;45.332;10.230;2022-12-08T06:25:35;3.10;99.90
45765;DHT22;31474;45.332;10.230;2022-12-08T06:28:00;3.20;99.90
45765;DHT22;31474;45.332;10.230;2022-12-08T06:30:26;3.20;99.90
45765;DHT22;31474;45.332;10.230;2022-12-08T06:32:53;3.20;99.90
45765;DHT22;31474;45.332;10.230;2022-12-08T06:35:18;3.20;99.90
45765;DHT22;31474;45.332;10.230;2022-12-08T06:37:44;3.20;99.90
45765;DHT22;31474;45.332;10.230;2022-12-08T06:40:10;3.20;99.90
45765;DHT22;31474;45.332;10.230;2022-12-08T06:42:36;3.10;99.90
45765;DHT22;31474;45.332;10.230;2022-12-08T06:45:15;3.10;99.90
45765;DHT22;31474;45.332;10.230;2022-12-08T06:47:42;3.20;99.90
45765;DHT22;31474;45.332;10.230;2022-12-08T06:50:09;3.20;99.90
45765;DHT22;31474;45.332;10.230;2022-12-08T06:52:35;3.30;99.90
45765;DHT22;31474;45.332;10.230;2022-12-08T06:55:01;3.30;99.90
45765;DHT22;31474;45.332;10.230;2022-12-08T06:57:26;3.30;99.90
45765;DHT22;31474;45.332;10.230;2022-12-08T06:59:52;3.30;99.90
45765;DHT22;31474;45.332;10.230;2022-12-08T07:02:18;3.40;99.90
45765;DHT22;31474;45.332;10.230;2022-12-08T07:04:43;3.40;99.90
45765;DHT22;31474;45.332;10.230;2022-12-08T07:07:09;3.40;99.90
45765;DHT22;31474;45.332;10.230;2022-12-08T07:09:35;3.40;99.90
45765;DHT22;31474;45.332;10.230;2022-12-08T07:12:02;3.40;99.90
45765;DHT22;31474;45.332;10.230;2022-12-08T07:14:28;3.50;99.90
45765;DHT22;31474;45.332;10.230;2022-12-08T07:16:54;3.50;99.90
45765;DHT22;31474;45.332;10.230;2022-12-08T07:19:20;3.60;99.90
45765;DHT22;31474;45.332;10.230;2022-12-08T07:21:46;3.60;99.90
45765;DHT22;31474;45.332;10.230;2022-12-08T07:24:12;3.60;99.90
45765;DHT22;31474;45.332;10.230;2022-12-08T07:26:38;3.60;99.90
45765;DHT22;31474;45.332;10.230;2022-12-08T07:29:04;3.70;99.90
45765;DHT22;31474;45.332;10.230;2022-12-08T07:31:30;3.70;99.90
45765;DHT22;31474;45.332;10.230;2022-12-08T07:33:56;3.70;99.90
45765;DHT22;31474;45.332;10.230;2022-12-08T07:36:23;3.70;99.90
45765;DHT22;31474;45.332;10.230;2022-12-08T07:38:50;3.70;99.90
45765;DHT22;31474;45.332;10.230;2022-12-08T07:41:19;3.80;99.90
45765;DHT22;31474;45.332;10.230;2022-12-08T07:43:46;3.80;99.90
45765;DHT22;31474;45.332;10.230;2022-12-08T07:46:14;3.80;99.90
45765;DHT22;31474;45.332;10.230;2022-12-08T07:48:40;3.80;99.90
45765;DHT22;31474;45.332;10.230;2022-12-08T07:51:06;3.80;99.90
45765;DHT22;31474;45.332;10.230;2022-12-08T07:53:33;3.90;99.90
45765;DHT22;31474;45.332;10.230;2022-12-08T07:55:58;4.00;99.90
45765;DHT22;31474;45.332;10.230;2022-12-08T07:58:24;4.10;99.90
45765;DHT22;31474;45.332;10.230;2022-12-08T08:00:51;4.30;99.90
45765;DHT22;31474;45.332;10.230;2022-12-08T08:03:17;4.30;99.90
45765;DHT22;31474;45.332;10.230;2022-12-08T08:05:42;4.30;99.90
45765;DHT22;31474;45.332;10.230;2022-12-08T08:08:13;4.40;99.90
45765;DHT22;31474;45.332;10.230;2022-12-08T08:10:39;4.40;99.90
45765;DHT22;31474;45.332;10.230;2022-12-08T08:13:04;4.40;99.90
45765;DHT22;31474;45.332;10.230;2022-12-08T08:15:30;4.50;99.90
45765;DHT22;31474;45.332;10.230;2022-12-08T08:17:56;4.60;99.90
45765;DHT22;31474;45.332;10.230;2022-12-08T08:20:22;4.60;99.90
45765;DHT22;31474;45.332;10.230;2022-12-08T08:22:49;4.60;99.90
45765;DHT22;31474;45.332;10.230;2022-12-08T08:25:15;4.70;99.90
45765;DHT22;31474;45.332;10.230;2022-12-08T08:27:42;4.60;99.90
45765;DHT22;31474;45.332;10.230;2022-12-08T08:30:09;4.60;99.90
45765;DHT22;31474;45.332;10.230;2022-12-08T08:32:36;4.70;99.90
45765;DHT22;31474;45.332;10.230;2022-12-08T08:35:02;4.70;99.90
45765;DHT22;31474;45.332;10.230;2022-12-08T08:37:28;4.90;99.90
45765;DHT22;31474;45.332;10.230;2022-12-08T08:39:53;5.00;99.90
45765;DHT22;31474;45.332;10.230;2022-12-08T08:42:19;5.00;99.90
45765;DHT22;31474;45.332;10.230;2022-12-08T08:44:45;5.00;99.90
45765;DHT22;31474;45.332;10.230;2022-12-08T08:47:11;5.00;99.90
45765;DHT22;31474;45.332;10.230;2022-12-08T08:49:36;5.00;99.90
45765;DHT22;31474;45.332;10.230;2022-12-08T08:52:04;5.00;99.90
45765;DHT22;31474;45.332;10.230;2022-12-08T08:54:30;5.00;99.90
45765;DHT22;31474;45.332;10.230;2022-12-08T08:56:56;4.90;99.90
45765;DHT22;31474;45.332;10.230;2022-12-08T08:59:22;4.90;99.90
45765;DHT22;31474;45.332;10.230;2022-12-08T09:01:48;4.90;99.90
45765;DHT22;31474;45.332;10.230;2022-12-08T09:04:14;4.90;99.90
45765;DHT22;31474;45.332;10.230;2022-12-08T09:06:39;4.90;99.90
45765;DHT22;31474;45.332;10.230;2022-12-08T09:09:07;4.90;99.90
45765;DHT22;31474;45.332;10.230;2022-12-08T09:11:33;4.90;99.90
45765;DHT22;31474;45.332;10.230;2022-12-08T09:13:58;4.90;99.90
45765;DHT22;31474;45.332;10.230;2022-12-08T09:16:24;5.00;99.90
45765;DHT22;31474;45.332;10.230;2022-12-08T09:18:50;5.00;99.90
45765;DHT22;31474;45.332;10.230;2022-12-08T09:21:18;5.10;99.90
45765;DHT22;31474;45.332;10.230;2022-12-08T09:23:47;5.20;99.90
45765;DHT22;31474;45.332;10.230;2022-12-08T09:26:13;5.30;99.90
45765;DHT22;31474;45.332;10.230;2022-12-08T09:28:39;5.30;99.90
45765;DHT22;31474;45.332;10.230;2022-12-08T09:31:04;5.40;99.90
45765;DHT22;31474;45.332;10.230;2022-12-08T09:33:30;5.40;99.90
45765;DHT22;31474;45.332;10.230;2022-12-08T09:36:01;5.40;99.90
45765;DHT22;31474;45.332;10.230;2022-12-08T09:38:27;5.40;99.90
45765;DHT22;31474;45.332;10.230;2022-12-08T09:40:53;5.50;99.90
45765;DHT22;31474;45.332;10.230;2022-12-08T09:45:50;5.60;99.90
45765;DHT22;31474;45.332;10.230;2022-12-08T09:48:29;5.60;99.90
45765;DHT22;31474;45.332;10.230;2022-12-08T09:50:57;5.70;99.90
45765;DHT22;31474;45.332;10.230;2022-12-08T09:58:41;6.00;99.90
45765;DHT22;31474;45.332;10.230;2022-12-08T10:01:12;6.10;99.90
45765;DHT22;31474;45.332;10.230;2022-12-08T10:03:39;6.20;99.90
45765;DHT22;31474;45.332;10.230;2022-12-08T10:06:41;6.20;99.90
45765;DHT22;31474;45.332;10.230;2022-12-08T10:12:01;6.40;99.90
45765;DHT22;31474;45.332;10.230;2022-12-08T10:14:46;6.40;99.90
45765;DHT22;31474;45.332;10.230;2022-12-08T10:17:29;6.60;99.90
45765;DHT22;31474;45.332;10.230;2022-12-08T10:20:22;6.70;99.90
45765;DHT22;31474;45.332;10.230;2022-12-08T10:22:50;6.80;99.90
45765;DHT22;31474;45.332;10.230;2022-12-08T10:25:24;6.90;99.90
45765;DHT22;31474;45.332;10.230;2022-12-08T10:27:53;7.00;99.90
45765;DHT22;31474;45.332;10.230;2022-12-08T10:30:21;7.00;99.90
45765;DHT22;31474;45.332;10.230;2022-12-08T10:32:52;6.90;99.90
45765;DHT22;31474;45.332;10.230;2022-12-08T10:35:20;6.90;99.90
45765;DHT22;31474;45.332;10.230;2022-12-08T10:37:57;6.90;99.90
45765;DHT22;31474;45.332;10.230;2022-12-08T10:40:26;6.90;99.90
45765;DHT22;31474;45.332;10.230;2022-12-08T10:42:55;7.00;99.90
45765;DHT22;31474;45.332;10.230;2022-12-08T10:45:27;7.00;99.90
45765;DHT22;31474;45.332;10.230;2022-12-08T10:48:23;7.00;99.90
45765;DHT22;31474;45.332;10.230;2022-12-08T10:50:55;7.00;99.90
45765;DHT22;31474;45.332;10.230;2022-12-08T10:53:44;7.10;99.90
45765;DHT22;31474;45.332;10.230;2022-12-08T10:56:14;7.00;99.90
45765;DHT22;31474;45.332;10.230;2022-12-08T10:58:45;7.00;99.90
45765;DHT22;31474;45.332;10.230;2022-12-08T11:01:23;7.10;99.90
45765;DHT22;31474;45.332;10.230;2022-12-08T11:03:51;7.10;99.90
45765;DHT22;31474;45.332;10.230;2022-12-08T11:08:57;7.30;99.90
45765;DHT22;31474;45.332;10.230;2022-12-08T11:11:53;7.30;99.90
45765;DHT22;31474;45.332;10.230;2022-12-08T11:20:01;7.20;99.90
45765;DHT22;31474;45.332;10.230;2022-12-08T11:27:43;7.10;99.90
45765;DHT22;31474;45.332;10.230;2022-12-08T11:30:17;7.00;99.90
45765;DHT22;31474;45.332;10.230;2022-12-08T11:32:46;7.10;99.90
45765;DHT22;31474;45.332;10.230;2022-12-08T11:35:35;7.10;99.90
45765;DHT22;31474;45.332;10.230;2022-12-08T11:38:10;7.10;99.90
45765;DHT22;31474;45.332;10.230;2022-12-08T11:40:39;7.10;99.90
45765;DHT22;31474;45.332;10.230;2022-12-08T11:43:26;7.00;99.90
45765;DHT22;31474;45.332;10.230;2022-12-08T11:46:02;7.00;99.90
45765;DHT22;31474;45.332;10.230;2022-12-08T11:48:44;7.10;99.90
45765;DHT22;31474;45.332;10.230;2022-12-08T11:56:38;7.20;99.90
45765;DHT22;31474;45.332;10.230;2022-12-08T12:02:01;7.20;99.90
45765;DHT22;31474;45.332;10.230;2022-12-08T12:04:39;7.20;99.90
45765;DHT22;31474;45.332;10.230;2022-12-08T12:10:01;7.20;99.90
45765;DHT22;31474;45.332;10.230;2022-12-08T12:12:44;7.30;99.90
45765;DHT22;31474;45.332;10.230;2022-12-08T12:18:00;7.30;99.90
45765;DHT22;31474;45.332;10.230;2022-12-08T12:20:37;7.30;99.90
45765;DHT22;31474;45.332;10.230;2022-12-08T12:23:20;7.30;99.90
45765;DHT22;31474;45.332;10.230;2022-12-08T12:25:57;7.30;99.90
45765;DHT22;31474;45.332;10.230;2022-12-08T12:28:26;7.20;99.90
45765;DHT22;31474;45.332;10.230;2022-12-08T12:31:11;7.20;99.90
45765;DHT22;31474;45.332;10.230;2022-12-08T12:33:39;7.20;99.90
45765;DHT22;31474;45.332;10.230;2022-12-08T12:36:08;7.30;99.90
45765;DHT22;31474;45.332;10.230;2022-12-08T12:38:37;7.50;99.90
45765;DHT22;31474;45.332;10.230;2022-12-08T12:41:28;7.60;99.90
45765;DHT22;31474;45.332;10.230;2022-12-08T12:46:40;7.60;99.90
45765;DHT22;31474;45.332;10.230;2022-12-08T12:54:43;7.50;99.90
45765;DHT22;31474;45.332;10.230;2022-12-08T13:05:15;7.40;99.90
45765;DHT22;31474;45.332;10.230;2022-12-08T13:10:24;7.50;99.90
45765;DHT22;31474;45.332;10.230;2022-12-08T13:15:39;7.50;99.90
45765;DHT22;31474;45.332;10.230;2022-12-08T13:18:14;7.60;99.90
45765;DHT22;31474;45.332;10.230;2022-12-08T13:20:45;7.60;99.90
45765;DHT22;31474;45.332;10.230;2022-12-08T13:25:51;7.70;99.90
45765;DHT22;31474;45.332;10.230;2022-12-08T13:28:22;7.80;99.90
45765;DHT22;31474;45.332;10.230;2022-12-08T13:31:00;7.80;99.90
45765;DHT22;31474;45.332;10.230;2022-12-08T13:33:52;7.80;99.90
45765;DHT22;31474;45.332;10.230;2022-12-08T13:36:23;7.70;99.90
45765;DHT22;31474;45.332;10.230;2022-12-08T13:38:54;7.80;99.90
45765;DHT22;31474;45.332;10.230;2022-12-08T13:41:32;7.90;99.90
45765;DHT22;31474;45.332;10.230;2022-12-08T13:44:08;8.00;99.90
45765;DHT22;31474;45.332;10.230;2022-12-08T13:46:41;8.00;99.90
45765;DHT22;31474;45.332;10.230;2022-12-08T13:49:08;7.90;99.90
45765;DHT22;31474;45.332;10.230;2022-12-08T13:51:43;7.90;99.90
45765;DHT22;31474;45.332;10.230;2022-12-08T13:54:17;7.90;99.90
45765;DHT22;31474;45.332;10.230;2022-12-08T13:56:46;8.00;99.90
45765;DHT22;31474;45.332;10.230;2022-12-08T14:01:47;8.00;99.90
45765;DHT22;31474;45.332;10.230;2022-12-08T14:04:18;8.00;99.90
45765;DHT22;31474;45.332;10.230;2022-12-08T14:06:48;8.00;99.90
45765;DHT22;31474;45.332;10.230;2022-12-08T14:09:22;8.00;99.90
45765;DHT22;31474;45.332;10.230;2022-12-08T14:11:56;8.00;99.90
45765;DHT22;31474;45.332;10.230;2022-12-08T14:14:29;7.90;99.90
45765;DHT22;31474;45.332;10.230;2022-12-08T14:17:00;7.80;99.90
45765;DHT22;31474;45.332;10.230;2022-12-08T14:19:31;7.80;99.90
45765;DHT22;31474;45.332;10.230;2022-12-08T14:22:08;7.80;99.90
45765;DHT22;31474;45.332;10.230;2022-12-08T14:24:35;7.70;99.90
45765;DHT22;31474;45.332;10.230;2022-12-08T14:27:03;7.60;99.90
45765;DHT22;31474;45.332;10.230;2022-12-08T14:30:25;7.60;99.90
45765;DHT22;31474;45.332;10.230;2022-12-08T14:33:01;7.50;99.90
45765;DHT22;31474;45.332;10.230;2022-12-08T14:35:29;7.50;99.90
45765;DHT22;31474;45.332;10.230;2022-12-08T14:38:03;7.50;99.90
45765;DHT22;31474;45.332;10.230;2022-12-08T14:53:40;7.40;99.90
45765;DHT22;31474;45.332;10.230;2022-12-08T14:59:28;7.40;99.90
45765;DHT22;31474;45.332;10.230;2022-12-08T15:08:00;7.30;99.90
45765;DHT22;31474;45.332;10.230;2022-12-08T15:10:29;7.30;99.90
45765;DHT22;31474;45.332;10.230;2022-12-08T15:15:24;7.40;99.90
45765;DHT22;31474;45.332;10.230;2022-12-08T15:18:29;7.30;99.90
45765;DHT22;31474;45.332;10.230;2022-12-08T15:20:51;7.20;99.90
45765;DHT22;31474;45.332;10.230;2022-12-08T15:23:22;7.20;99.90
45765;DHT22;31474;45.332;10.230;2022-12-08T15:25:49;7.20;99.90
45765;DHT22;31474;45.332;10.230;2022-12-08T15:28:17;7.20;99.90
45765;DHT22;31474;45.332;10.230;2022-12-08T15:30:44;7.10;99.90
45765;DHT22;31474;45.332;10.230;2022-12-08T15:33:09;7.10;99.90
45765;DHT22;31474;45.332;10.230;2022-12-08T15:35:35;7.00;99.90
45765;DHT22;31474;45.332;10.230;2022-12-08T15:38:01;7.00;99.90
45765;DHT22;31474;45.332;10.230;2022-12-08T15:40:27;7.00;99.90
45765;DHT22;31474;45.332;10.230;2022-12-08T15:42:52;6.90;99.90
45765;DHT22;31474;45.332;10.230;2022-12-08T15:45:24;6.90;99.90
45765;DHT22;31474;45.332;10.230;2022-12-08T15:47:50;6.90;99.90
45765;DHT22;31474;45.332;10.230;2022-12-08T15:50:18;6.80;99.90
45765;DHT22;31474;45.332;10.230;2022-12-08T15:52:44;6.90;99.90
45765;DHT22;31474;45.332;10.230;2022-12-08T15:55:15;6.80;99.90
45765;DHT22;31474;45.332;10.230;2022-12-08T15:57:47;6.80;99.90
45765;DHT22;31474;45.332;10.230;2022-12-08T16:00:27;6.80;99.90
45765;DHT22;31474;45.332;10.230;2022-12-08T16:02:56;6.80;99.90
45765;DHT22;31474;45.332;10.230;2022-12-08T16:05:22;6.80;99.90
45765;DHT22;31474;45.332;10.230;2022-12-08T16:07:49;6.80;99.90
45765;DHT22;31474;45.332;10.230;2022-12-08T16:10:17;6.80;99.90
45765;DHT22;31474;45.332;10.230;2022-12-08T16:12:43;6.80;99.90
45765;DHT22;31474;45.332;10.230;2022-12-08T16:15:28;6.80;99.90
45765;DHT22;31474;45.332;10.230;2022-12-08T16:17:54;6.80;99.90
45765;DHT22;31474;45.332;10.230;2022-12-08T16:20:21;6.80;99.90
45765;DHT22;31474;45.332;10.230;2022-12-08T16:22:47;6.70;99.90
45765;DHT22;31474;45.332;10.230;2022-12-08T16:25:14;6.70;99.90
45765;DHT22;31474;45.332;10.230;2022-12-08T16:27:40;6.70;99.90
45765;DHT22;31474;45.332;10.230;2022-12-08T16:30:12;6.70;99.90
45765;DHT22;31474;45.332;10.230;2022-12-08T16:32:38;6.70;99.90
45765;DHT22;31474;45.332;10.230;2022-12-08T16:35:04;6.70;99.90
45765;DHT22;31474;45.332;10.230;2022-12-08T16:37:30;6.70;99.90
45765;DHT22;31474;45.332;10.230;2022-12-08T16:39:57;6.70;99.90
45765;DHT22;31474;45.332;10.230;2022-12-08T16:42:28;6.60;99.90
45765;DHT22;31474;45.332;10.230;2022-12-08T16:47:48;6.60;99.90
45765;DHT22;31474;45.332;10.230;2022-12-08T16:50:26;6.60;99.90
45765;DHT22;31474;45.332;10.230;2022-12-08T16:52:56;6.60;99.90
45765;DHT22;31474;45.332;10.230;2022-12-08T16:55:22;6.60;99.90
45765;DHT22;31474;45.332;10.230;2022-12-08T16:57:48;6.60;99.90
45765;DHT22;31474;45.332;10.230;2022-12-08T17:00:17;6.60;99.90
45765;DHT22;31474;45.332;10.230;2022-12-08T17:02:43;6.60;99.90
45765;DHT22;31474;45.332;10.230;2022-12-08T17:05:11;6.60;99.90
45765;DHT22;31474;45.332;10.230;2022-12-08T17:07:41;6.60;99.90
45765;DHT22;31474;45.332;10.230;2022-12-08T17:10:08;6.60;99.90
45765;DHT22;31474;45.332;10.230;2022-12-08T17:12:36;6.60;99.90
45765;DHT22;31474;45.332;10.230;2022-12-08T17:15:03;6.60;99.90
45765;DHT22;31474;45.332;10.230;2022-12-08T17:17:31;6.60;99.90
45765;DHT22;31474;45.332;10.230;2022-12-08T17:19:57;6.70;99.90
45765;DHT22;31474;45.332;10.230;2022-12-08T17:22:22;6.70;99.90
45765;DHT22;31474;45.332;10.230;2022-12-08T17:24:48;6.70;99.90
45765;DHT22;31474;45.332;10.230;2022-12-08T17:27:14;6.70;99.90
45765;DHT22;31474;45.332;10.230;2022-12-08T17:29:39;6.70;99.90
45765;DHT22;31474;45.332;10.230;2022-12-08T17:32:05;6.70;99.90
45765;DHT22;31474;45.332;10.230;2022-12-08T17:34:31;6.70;99.90
45765;DHT22;31474;45.332;10.230;2022-12-08T17:36:57;6.70;99.90
45765;DHT22;31474;45.332;10.230;2022-12-08T17:39:22;6.70;99.90
45765;DHT22;31474;45.332;10.230;2022-12-08T17:41:48;6.70;99.90
45765;DHT22;31474;45.332;10.230;2022-12-08T17:44:16;6.70;99.90
45765;DHT22;31474;45.332;10.230;2022-12-08T17:46:43;6.70;99.90
45765;DHT22;31474;45.332;10.230;2022-12-08T17:49:17;6.70;99.90